sensor_id;sensor_type;location;lat;lon;timestamp;pressure;altitude;pressure_sealevel;temperature;humidity
79144;BME280;68551;47.484;19.092;2023-04-09T00:00:15;101067.69;;;5.11;79.77
79144;BME280;68551;47.484;19.092;2023-04-09T00:03:22;101065.50;;;5.07;80.26
79144;BME280;68551;47.484;19.092;2023-04-09T00:06:27;101068.53;;;5.12;80.15
79144;BME280;68551;47.484;19.092;2023-04-09T00:09:30;101067.19;;;5.08;79.83
79144;BME280;68551;47.484;19.092;2023-04-09T00:12:33;101066.34;;;5.07;80.24
79144;BME280;68551;47.484;19.092;2023-04-09T00:15:36;101065.19;;;5.02;80.74
79144;BME280;68551;47.484;19.092;2023-04-09T00:18:38;101061.00;;;4.91;80.85
79144;BME280;68551;47.484;19.092;2023-04-09T00:21:40;101066.69;;;4.96;81.05
79144;BME280;68551;47.484;19.092;2023-04-09T00:24:43;101065.84;;;4.95;81.12
79144;BME280;68551;47.484;19.092;2023-04-09T00:27:45;101060.44;;;4.95;81.00
79144;BME280;68551;47.484;19.092;2023-04-09T00:30:48;101064.16;;;5.03;80.39
79144;BME280;68551;47.484;19.092;2023-04-09T00:33:50;101072.59;;;4.99;80.41
79144;BME280;68551;47.484;19.092;2023-04-09T00:36:54;101057.75;;;4.95;81.12
79144;BME280;68551;47.484;19.092;2023-04-09T00:39:57;101055.22;;;4.94;80.68
79144;BME280;68551;47.484;19.092;2023-04-09T00:43:02;101065.16;;;5.10;80.54
79144;BME280;68551;47.484;19.092;2023-04-09T00:46:07;101069.22;;;5.14;79.86
79144;BME280;68551;47.484;19.092;2023-04-09T00:49:09;101059.09;;;4.99;80.04
79144;BME280;68551;47.484;19.092;2023-04-09T00:52:11;101057.59;;;5.05;79.89
79144;BME280;68551;47.484;19.092;2023-04-09T00:55:14;101052.66;;;5.09;80.18
79144;BME280;68551;47.484;19.092;2023-04-09T00:58:22;101040.84;;;5.10;79.89
79144;BME280;68551;47.484;19.092;2023-04-09T01:01:32;101058.22;;;5.15;79.34
79144;BME280;68551;47.484;19.092;2023-04-09T01:04:35;101054.00;;;5.13;79.87
79144;BME280;68551;47.484;19.092;2023-04-09T01:14:20;101055.69;;;5.06;79.92
79144;BME280;68551;47.484;19.092;2023-04-09T01:17:32;101062.13;;;5.13;79.81
79144;BME280;68551;47.484;19.092;2023-04-09T01:20:41;101061.94;;;5.14;79.65
79144;BME280;68551;47.484;19.092;2023-04-09T01:23:58;101063.63;;;5.15;79.54
79144;BME280;68551;47.484;19.092;2023-04-09T01:27:15;101043.88;;;5.07;79.83
79144;BME280;68551;47.484;19.092;2023-04-09T01:30:30;101052.31;;;5.12;79.59
79144;BME280;68551;47.484;19.092;2023-04-09T01:33:33;101058.56;;;5.12;79.44
79144;BME280;68551;47.484;19.092;2023-04-09T01:36:39;101060.75;;;5.17;79.67
79144;BME280;68551;47.484;19.092;2023-04-09T01:39:45;101055.50;;;5.23;79.14
79144;BME280;68551;47.484;19.092;2023-04-09T01:42:53;101057.72;;;5.12;79.94
79144;BME280;68551;47.484;19.092;2023-04-09T01:46:00;101059.44;;;5.05;79.90
79144;BME280;68551;47.484;19.092;2023-04-09T01:49:08;101059.41;;;5.13;79.99
79144;BME280;68551;47.484;19.092;2023-04-09T01:52:12;101065.81;;;5.20;79.45
79144;BME280;68551;47.484;19.092;2023-04-09T01:55:15;101049.78;;;5.10;79.66
79144;BME280;68551;47.484;19.092;2023-04-09T01:58:20;101053.00;;;5.06;79.88
79144;BME280;68551;47.484;19.092;2023-04-09T02:01:35;101056.53;;;5.06;80.48
79144;BME280;68551;47.484;19.092;2023-04-09T02:04:42;101047.13;;;5.02;80.61
79144;BME280;68551;47.484;19.092;2023-04-09T02:07:53;101068.88;;;5.09;80.48
79144;BME280;68551;47.484;19.092;2023-04-09T02:11:02;101050.97;;;5.08;80.35
79144;BME280;68551;47.484;19.092;2023-04-09T02:14:06;101055.06;;;5.04;80.57
79144;BME280;68551;47.484;19.092;2023-04-09T02:17:12;101057.75;;;5.04;81.44
79144;BME280;68551;47.484;19.092;2023-04-09T02:20:19;101051.69;;;5.02;81.06
79144;BME280;68551;47.484;19.092;2023-04-09T02:23:23;101052.50;;;5.10;81.00
79144;BME280;68551;47.484;19.092;2023-04-09T02:26:26;101045.94;;;4.96;81.01
79144;BME280;68551;47.484;19.092;2023-04-09T02:29:29;101051.47;;;5.11;80.70
79144;BME280;68551;47.484;19.092;2023-04-09T02:32:31;101050.63;;;5.11;81.01
79144;BME280;68551;47.484;19.092;2023-04-09T02:35:36;101053.38;;;5.03;81.22
79144;BME280;68551;47.484;19.092;2023-04-09T02:38:42;101047.78;;;4.96;81.45
79144;BME280;68551;47.484;19.092;2023-04-09T02:41:44;101044.94;;;4.97;81.30
79144;BME280;68551;47.484;19.092;2023-04-09T02:44:46;101053.00;;;5.14;81.38
79144;BME280;68551;47.484;19.092;2023-04-09T02:47:51;101050.44;;;5.20;80.33
79144;BME280;68551;47.484;19.092;2023-04-09T02:50:54;101043.88;;;5.15;80.72
79144;BME280;68551;47.484;19.092;2023-04-09T02:53:57;101045.75;;;5.14;80.47
79144;BME280;68551;47.484;19.092;2023-04-09T02:57:06;101034.81;;;4.99;80.41
79144;BME280;68551;47.484;19.092;2023-04-09T03:00:09;101043.41;;;5.03;79.71
79144;BME280;68551;47.484;19.092;2023-04-09T03:03:12;101045.78;;;4.98;79.90
79144;BME280;68551;47.484;19.092;2023-04-09T03:06:18;101056.88;;;5.11;79.40
79144;BME280;68551;47.484;19.092;2023-04-09T03:09:22;101043.88;;;5.07;79.26
79144;BME280;68551;47.484;19.092;2023-04-09T03:12:25;101045.28;;;5.03;78.98
79144;BME280;68551;47.484;19.092;2023-04-09T03:15:32;101047.59;;;5.06;79.06
79144;BME280;68551;47.484;19.092;2023-04-09T03:18:34;101048.94;;;5.10;79.37
79144;BME280;68551;47.484;19.092;2023-04-09T03:21:39;101053.16;;;5.12;79.52
79144;BME280;68551;47.484;19.092;2023-04-09T03:24:47;101055.06;;;5.04;80.23
79144;BME280;68551;47.484;19.092;2023-04-09T03:27:52;101051.50;;;5.03;80.37
79144;BME280;68551;47.484;19.092;2023-04-09T03:31:09;101049.13;;;5.16;80.05
79144;BME280;68551;47.484;19.092;2023-04-09T03:34:14;101059.41;;;5.13;80.28
79144;BME280;68551;47.484;19.092;2023-04-09T03:37:22;101051.69;;;5.02;80.38
79144;BME280;68551;47.484;19.092;2023-04-09T03:40:26;101054.38;;;4.93;81.08
79144;BME280;68551;47.484;19.092;2023-04-09T03:43:28;101043.28;;;4.88;81.19
79144;BME280;68551;47.484;19.092;2023-04-09T03:46:30;101050.66;;;4.94;81.27
79144;BME280;68551;47.484;19.092;2023-04-09T03:49:35;101052.53;;;4.94;81.42
79144;BME280;68551;47.484;19.092;2023-04-09T03:52:48;101049.63;;;5.12;80.83
79144;BME280;68551;47.484;19.092;2023-04-09T03:55:50;101053.69;;;5.08;80.93
79144;BME280;68551;47.484;19.092;2023-04-09T03:58:58;101054.34;;;5.10;80.88
79144;BME280;68551;47.484;19.092;2023-04-09T04:02:09;101057.22;;;5.08;80.13
79144;BME280;68551;47.484;19.092;2023-04-09T04:05:24;101045.78;;;4.98;80.56
79144;BME280;68551;47.484;19.092;2023-04-09T04:08:30;101068.88;;;5.09;80.84
79144;BME280;68551;47.484;19.092;2023-04-09T04:11:33;101068.53;;;5.12;79.39
79144;BME280;68551;47.484;19.092;2023-04-09T04:14:40;101053.84;;;5.14;78.57
79144;BME280;68551;47.484;19.092;2023-04-09T04:17:55;101057.38;;;5.15;78.76
79144;BME280;68551;47.484;19.092;2023-04-09T04:21:24;101053.19;;;5.04;79.19
79144;BME280;68551;47.484;19.092;2023-04-09T04:24:33;101062.63;;;5.16;79.53
79144;BME280;68551;47.484;19.092;2023-04-09T04:27:44;101061.09;;;5.14;79.82
79144;BME280;68551;47.484;19.092;2023-04-09T04:30:48;101071.19;;;5.20;79.17
79144;BME280;68551;47.484;19.092;2023-04-09T04:33:53;101077.97;;;5.24;79.34
79144;BME280;68551;47.484;19.092;2023-04-09T04:36:58;101078.16;;;5.14;80.27
79144;BME280;68551;47.484;19.092;2023-04-09T04:40:05;101073.59;;;5.15;79.94
79144;BME280;68551;47.484;19.092;2023-04-09T04:43:14;101071.91;;;5.14;79.70
79144;BME280;68551;47.484;19.092;2023-04-09T04:46:20;101085.75;;;5.19;79.84
79144;BME280;68551;47.484;19.092;2023-04-09T04:49:25;101074.75;;;5.20;79.65
79144;BME280;68551;47.484;19.092;2023-04-09T04:52:27;101087.75;;;5.25;80.10
79144;BME280;68551;47.484;19.092;2023-04-09T04:55:33;101093.16;;;5.25;80.00
79144;BME280;68551;47.484;19.092;2023-04-09T04:58:37;101093.16;;;5.25;80.20
79144;BME280;68551;47.484;19.092;2023-04-09T05:01:42;101085.38;;;5.30;79.79
79144;BME280;68551;47.484;19.092;2023-04-09T05:04:50;101083.50;;;5.39;79.61
79144;BME280;68551;47.484;19.092;2023-04-09T05:08:03;101088.72;;;5.40;79.60
79144;BME280;68551;47.484;19.092;2023-04-09T05:11:10;101091.59;;;5.39;79.36
79144;BME280;68551;47.484;19.092;2023-04-09T05:14:14;101083.03;;;5.27;79.24
79144;BME280;68551;47.484;19.092;2023-04-09T05:17:16;101090.78;;;5.30;79.31
79144;BME280;68551;47.484;19.092;2023-04-09T05:20:19;101090.59;;;5.40;79.33
79144;BME280;68551;47.484;19.092;2023-04-09T05:23:36;101094.97;;;5.41;78.69
79144;BME280;68551;47.484;19.092;2023-04-09T05:26:38;101092.09;;;5.42;78.53
79144;BME280;68551;47.484;19.092;2023-04-09T05:29:43;101099.88;;;5.45;78.68
79144;BME280;68551;47.484;19.092;2023-04-09T05:32:46;101098.84;;;5.46;78.39
79144;BME280;68551;47.484;19.092;2023-04-09T05:35:52;101107.31;;;5.43;78.20
79144;BME280;68551;47.484;19.092;2023-04-09T05:38:57;101095.81;;;5.41;78.13
79144;BME280;68551;47.484;19.092;2023-04-09T05:42:00;101105.94;;;5.47;78.37
79144;BME280;68551;47.484;19.092;2023-04-09T05:45:27;101104.91;;;5.48;77.35
79144;BME280;68551;47.484;19.092;2023-04-09T05:48:30;101116.22;;;5.52;77.54
79144;BME280;68551;47.484;19.092;2023-04-09T05:51:34;101107.09;;;5.61;77.46
79144;BME280;68551;47.484;19.092;2023-04-09T05:54:40;101099.16;;;5.59;78.26
79144;BME280;68551;47.484;19.092;2023-04-09T05:57:43;101111.28;;;5.72;77.28
79144;BME280;68551;47.484;19.092;2023-04-09T06:00:49;101112.97;;;5.73;77.52
79144;BME280;68551;47.484;19.092;2023-04-09T06:03:53;101118.84;;;5.76;77.51
79144;BME280;68551;47.484;19.092;2023-04-09T06:07:01;101122.03;;;5.80;77.27
79144;BME280;68551;47.484;19.092;2023-04-09T06:10:04;101110.38;;;5.79;76.48
79144;BME280;68551;47.484;19.092;2023-04-09T06:13:09;101119.34;;;5.80;76.68
79144;BME280;68551;47.484;19.092;2023-04-09T06:16:17;101121.34;;;5.86;76.18
79144;BME280;68551;47.484;19.092;2023-04-09T06:19:24;101124.38;;;5.99;76.16
79144;BME280;68551;47.484;19.092;2023-04-09T06:22:26;101128.59;;;6.01;74.95
79144;BME280;68551;47.484;19.092;2023-04-09T06:25:29;101122.16;;;6.02;74.59
79144;BME280;68551;47.484;19.092;2023-04-09T06:28:34;101121.59;;;6.15;73.64
79144;BME280;68551;47.484;19.092;2023-04-09T06:31:40;101128.69;;;6.16;73.61
79144;BME280;68551;47.484;19.092;2023-04-09T06:34:42;101113.97;;;6.11;72.39
79144;BME280;68551;47.484;19.092;2023-04-09T06:37:47;101116.84;;;6.17;72.78
79144;BME280;68551;47.484;19.092;2023-04-09T06:40:55;101124.00;;;6.33;72.22
79144;BME280;68551;47.484;19.092;2023-04-09T06:44:04;101113.06;;;6.26;71.58
79144;BME280;68551;47.484;19.092;2023-04-09T06:47:09;101117.38;;;6.35;70.92
79144;BME280;68551;47.484;19.092;2023-04-09T06:50:13;101125.16;;;6.38;71.94
79144;BME280;68551;47.484;19.092;2023-04-09T06:53:22;101116.72;;;6.33;71.98
79144;BME280;68551;47.484;19.092;2023-04-09T06:56:27;101127.03;;;6.38;71.38
79144;BME280;68551;47.484;19.092;2023-04-09T06:59:29;101135.31;;;6.36;71.87
79144;BME280;68551;47.484;19.092;2023-04-09T07:02:33;101137.41;;;6.26;71.51
79144;BME280;68551;47.484;19.092;2023-04-09T07:05:39;101134.19;;;6.31;71.74
79144;BME280;68551;47.484;19.092;2023-04-09T07:08:43;101135.97;;;6.38;72.13
79144;BME280;68551;47.484;19.092;2023-04-09T07:11:48;101129.44;;;6.56;70.69
79144;BME280;68551;47.484;19.092;2023-04-09T07:14:57;101130.16;;;6.50;70.35
79144;BME280;68551;47.484;19.092;2023-04-09T07:18:02;101139.94;;;6.59;71.41
79144;BME280;68551;47.484;19.092;2023-04-09T07:21:05;101143.75;;;6.64;71.67
79144;BME280;68551;47.484;19.092;2023-04-09T07:24:07;101154.84;;;6.78;70.07
79144;BME280;68551;47.484;19.092;2023-04-09T07:27:10;101141.84;;;6.73;70.22
79144;BME280;68551;47.484;19.092;2023-04-09T07:30:12;101151.94;;;6.79;70.22
79144;BME280;68551;47.484;19.092;2023-04-09T07:33:22;101150.25;;;7.01;70.20
79144;BME280;68551;47.484;19.092;2023-04-09T07:36:26;101145.56;;;6.95;69.29
79144;BME280;68551;47.484;19.092;2023-04-09T07:39:30;101138.13;;;7.11;68.53
79144;BME280;68551;47.484;19.092;2023-04-09T07:42:32;101156.88;;;7.36;67.91
79144;BME280;68551;47.484;19.092;2023-04-09T07:45:37;101158.47;;;7.45;67.83
79144;BME280;68551;47.484;19.092;2023-04-09T07:48:43;101152.78;;;7.55;67.17
79144;BME280;68551;47.484;19.092;2023-04-09T07:51:48;101151.19;;;7.75;63.82
79144;BME280;68551;47.484;19.092;2023-04-09T07:54:50;101156.25;;;7.93;63.58
79144;BME280;68551;47.484;19.092;2023-04-09T07:57:52;101166.06;;;8.23;62.53
79144;BME280;68551;47.484;19.092;2023-04-09T08:00:57;101156.59;;;8.19;61.75
79144;BME280;68551;47.484;19.092;2023-04-09T08:04:02;101158.47;;;8.04;62.43
79144;BME280;68551;47.484;19.092;2023-04-09T08:07:07;101153.91;;;8.04;62.21
79144;BME280;68551;47.484;19.092;2023-04-09T08:10:12;101161.28;;;8.25;61.13
79144;BME280;68551;47.484;19.092;2023-04-09T08:13:22;101162.50;;;8.37;61.17
79144;BME280;68551;47.484;19.092;2023-04-09T08:16:27;101168.59;;;8.39;60.83
79144;BME280;68551;47.484;19.092;2023-04-09T08:19:33;101157.03;;;8.52;61.34
79144;BME280;68551;47.484;19.092;2023-04-09T08:22:36;101152.44;;;8.74;60.71
79144;BME280;68551;47.484;19.092;2023-04-09T08:25:39;101165.31;;;8.86;59.22
79144;BME280;68551;47.484;19.092;2023-04-09T08:28:42;101160.97;;;8.71;60.15
79144;BME280;68551;47.484;19.092;2023-04-09T08:31:44;101164.88;;;8.83;59.64
79144;BME280;68551;47.484;19.092;2023-04-09T08:34:46;101175.06;;;8.96;58.85
79144;BME280;68551;47.484;19.092;2023-04-09T08:37:55;101174.00;;;8.75;59.30
79144;BME280;68551;47.484;19.092;2023-04-09T08:41:00;101179.84;;;8.94;58.94
79144;BME280;68551;47.484;19.092;2023-04-09T08:44:07;101176.25;;;9.14;59.37
79144;BME280;68551;47.484;19.092;2023-04-09T08:47:10;101174.44;;;9.21;58.96
79144;BME280;68551;47.484;19.092;2023-04-09T08:50:13;101176.00;;;9.09;58.65
79144;BME280;68551;47.484;19.092;2023-04-09T08:53:16;101194.13;;;8.81;58.58
79144;BME280;68551;47.484;19.092;2023-04-09T08:56:21;101198.03;;;8.93;59.47
79144;BME280;68551;47.484;19.092;2023-04-09T08:59:26;101187.31;;;9.13;58.94
79144;BME280;68551;47.484;19.092;2023-04-09T09:02:28;101192.50;;;9.29;58.32
79144;BME280;68551;47.484;19.092;2023-04-09T09:05:40;101188.63;;;9.38;57.69
79144;BME280;68551;47.484;19.092;2023-04-09T09:08:42;101195.00;;;9.31;57.87
79144;BME280;68551;47.484;19.092;2023-04-09T09:11:47;101199.09;;;9.20;59.20
79144;BME280;68551;47.484;19.092;2023-04-09T09:14:51;101196.19;;;9.21;57.90
79144;BME280;68551;47.484;19.092;2023-04-09T09:17:59;101203.94;;;9.46;58.04
79144;BME280;68551;47.484;19.092;2023-04-09T09:21:11;101193.44;;;9.43;57.27
79144;BME280;68551;47.484;19.092;2023-04-09T09:24:19;101203.94;;;9.46;57.63
79144;BME280;68551;47.484;19.092;2023-04-09T09:27:51;101199.19;;;9.54;58.19
79144;BME280;68551;47.484;19.092;2023-04-09T09:30:52;101192.66;;;9.49;57.63
79144;BME280;68551;47.484;19.092;2023-04-09T09:33:55;101197.47;;;9.47;58.87
79144;BME280;68551;47.484;19.092;2023-04-09T09:36:58;101188.63;;;9.66;58.37
79144;BME280;68551;47.484;19.092;2023-04-09T09:40:01;101195.00;;;9.86;57.09
79144;BME280;68551;47.484;19.092;2023-04-09T09:43:04;101189.78;;;9.57;58.23
79144;BME280;68551;47.484;19.092;2023-04-09T09:46:07;101187.78;;;9.66;56.88
79144;BME280;68551;47.484;19.092;2023-04-09T09:49:13;101187.63;;;9.46;58.11
79144;BME280;68551;47.484;19.092;2023-04-09T09:52:23;101182.13;;;9.39;58.61
79144;BME280;68551;47.484;19.092;2023-04-09T09:55:30;101178.31;;;9.34;59.16
79144;BME280;68551;47.484;19.092;2023-04-09T09:58:52;101180.84;;;9.14;59.34
79144;BME280;68551;47.484;19.092;2023-04-09T10:01:59;101170.44;;;9.17;58.26
79144;BME280;68551;47.484;19.092;2023-04-09T10:05:07;101177.00;;;9.30;59.58
79144;BME280;68551;47.484;19.092;2023-04-09T10:08:11;101177.94;;;9.15;58.96
79144;BME280;68551;47.484;19.092;2023-04-09T10:11:16;101180.28;;;9.18;58.92
79144;BME280;68551;47.484;19.092;2023-04-09T10:14:20;101188.44;;;8.97;59.69
79144;BME280;68551;47.484;19.092;2023-04-09T10:17:23;101192.75;;;9.13;58.86
79144;BME280;68551;47.484;19.092;2023-04-09T10:20:38;101188.81;;;9.37;58.50
79144;BME280;68551;47.484;19.092;2023-04-09T10:23:47;101180.34;;;9.25;60.11
79144;BME280;68551;47.484;19.092;2023-04-09T10:26:56;101189.19;;;9.62;58.42
79144;BME280;68551;47.484;19.092;2023-04-09T10:30:21;101184.03;;;9.73;59.04
79144;BME280;68551;47.484;19.092;2023-04-09T10:33:36;101178.75;;;10.00;57.66
79144;BME280;68551;47.484;19.092;2023-04-09T10:36:42;101173.47;;;10.26;56.18
79144;BME280;68551;47.484;19.092;2023-04-09T10:39:47;101173.75;;;10.38;56.01
79144;BME280;68551;47.484;19.092;2023-04-09T10:42:50;101179.84;;;10.46;56.37
79144;BME280;68551;47.484;19.092;2023-04-09T10:45:56;101180.28;;;10.50;56.12
79144;BME280;68551;47.484;19.092;2023-04-09T10:52:28;101179.44;;;10.49;54.75
79144;BME280;68551;47.484;19.092;2023-04-09T10:58:38;101173.06;;;10.22;55.04
79144;BME280;68551;47.484;19.092;2023-04-09T11:01:51;101172.03;;;10.23;56.02
79144;BME280;68551;47.484;19.092;2023-04-09T11:08:19;101174.59;;;10.04;56.97
79144;BME280;68551;47.484;19.092;2023-04-09T11:11:26;101175.88;;;10.08;56.60
79144;BME280;68551;47.484;19.092;2023-04-09T11:14:29;101177.91;;;9.92;56.84
79144;BME280;68551;47.484;19.092;2023-04-09T11:17:35;101167.72;;;9.73;56.68
79144;BME280;68551;47.484;19.092;2023-04-09T11:20:42;101176.34;;;9.83;57.45
79144;BME280;68551;47.484;19.092;2023-04-09T11:23:51;101163.16;;;9.80;56.91
79144;BME280;68551;47.484;19.092;2023-04-09T11:26:53;101175.28;;;9.78;57.30
79144;BME280;68551;47.484;19.092;2023-04-09T11:30:02;101164.84;;;9.81;56.94
79144;BME280;68551;47.484;19.092;2023-04-09T11:33:05;101163.56;;;9.77;57.59
79144;BME280;68551;47.484;19.092;2023-04-09T11:36:10;101167.00;;;9.92;56.12
79144;BME280;68551;47.484;19.092;2023-04-09T11:39:12;101169.56;;;10.01;55.56
79144;BME280;68551;47.484;19.092;2023-04-09T11:42:16;101158.72;;;10.07;55.56
79144;BME280;68551;47.484;19.092;2023-04-09T11:45:21;101158.47;;;10.43;55.16
79144;BME280;68551;47.484;19.092;2023-04-09T11:48:24;101161.50;;;10.75;55.80
79144;BME280;68551;47.484;19.092;2023-04-09T11:51:27;101165.06;;;10.95;54.40
79144;BME280;68551;47.484;19.092;2023-04-09T11:54:35;101154.22;;;11.21;55.37
79144;BME280;68551;47.484;19.092;2023-04-09T11:57:44;101161.94;;;11.37;54.72
79144;BME280;68551;47.484;19.092;2023-04-09T12:00:47;101159.84;;;11.40;54.26
79144;BME280;68551;47.484;19.092;2023-04-09T12:03:53;101154.41;;;11.46;53.68
79144;BME280;68551;47.484;19.092;2023-04-09T12:06:58;101150.59;;;11.67;52.95
79144;BME280;68551;47.484;19.092;2023-04-09T12:10:07;101157.13;;;11.53;52.10
79144;BME280;68551;47.484;19.092;2023-04-09T12:13:11;101156.50;;;11.57;52.23
79144;BME280;68551;47.484;19.092;2023-04-09T12:16:18;101151.63;;;11.66;51.94
79144;BME280;68551;47.484;19.092;2023-04-09T12:19:24;101150.44;;;11.49;51.56
79144;BME280;68551;47.484;19.092;2023-04-09T12:22:27;101152.75;;;11.32;51.55
79144;BME280;68551;47.484;19.092;2023-04-09T12:25:31;101146.44;;;11.18;52.38
79144;BME280;68551;47.484;19.092;2023-04-09T12:28:36;101145.19;;;11.08;52.19
79144;BME280;68551;47.484;19.092;2023-04-09T12:31:42;101146.44;;;11.18;52.70
79144;BME280;68551;47.484;19.092;2023-04-09T12:34:44;101138.44;;;11.23;53.76
79144;BME280;68551;47.484;19.092;2023-04-09T12:37:49;101134.25;;;11.27;53.70
79144;BME280;68551;47.484;19.092;2023-04-09T12:40:51;101127.34;;;11.31;53.27
79144;BME280;68551;47.484;19.092;2023-04-09T12:43:56;101126.09;;;11.34;53.21
79144;BME280;68551;47.484;19.092;2023-04-09T12:47:01;101126.28;;;11.39;51.83
79144;BME280;68551;47.484;19.092;2023-04-09T12:50:06;101124.19;;;11.28;51.71
79144;BME280;68551;47.484;19.092;2023-04-09T12:53:09;101124.63;;;11.31;52.92
79144;BME280;68551;47.484;19.092;2023-04-09T12:56:15;101117.00;;;11.53;51.21
79144;BME280;68551;47.484;19.092;2023-04-09T12:59:19;101117.03;;;11.47;51.05
79144;BME280;68551;47.484;19.092;2023-04-09T13:02:22;101113.69;;;11.45;49.95
79144;BME280;68551;47.484;19.092;2023-04-09T13:05:27;101116.00;;;11.41;49.83
79144;BME280;68551;47.484;19.092;2023-04-09T13:08:29;101119.16;;;11.18;49.50
79144;BME280;68551;47.484;19.092;2023-04-09T13:11:32;101116.22;;;11.20;51.16
79144;BME280;68551;47.484;19.092;2023-04-09T13:14:40;101109.94;;;11.32;51.61
79144;BME280;68551;47.484;19.092;2023-04-09T13:17:46;101097.69;;;11.55;50.46
79144;BME280;68551;47.484;19.092;2023-04-09T13:20:50;101096.44;;;11.64;48.72
79144;BME280;68551;47.484;19.092;2023-04-09T13:24:00;101087.19;;;11.58;49.01
79144;BME280;68551;47.484;19.092;2023-04-09T13:27:05;101102.72;;;11.71;49.70
79144;BME280;68551;47.484;19.092;2023-04-09T13:30:09;101086.75;;;11.68;50.12
79144;BME280;68551;47.484;19.092;2023-04-09T13:33:13;101095.13;;;11.80;49.29
79144;BME280;68551;47.484;19.092;2023-04-09T13:36:16;101082.75;;;11.70;48.56
79144;BME280;68551;47.484;19.092;2023-04-09T13:39:23;101095.59;;;11.77;49.04
79144;BME280;68551;47.484;19.092;2023-04-09T13:42:28;101087.59;;;11.75;49.53
79144;BME280;68551;47.484;19.092;2023-04-09T13:45:33;101083.78;;;11.83;47.71
79144;BME280;68551;47.484;19.092;2023-04-09T13:48:37;101096.19;;;11.85;48.20
79144;BME280;68551;47.484;19.092;2023-04-09T13:51:40;101090.94;;;11.84;48.09
79144;BME280;68551;47.484;19.092;2023-04-09T13:54:45;101091.97;;;11.89;48.33
79144;BME280;68551;47.484;19.092;2023-04-09T13:57:47;101070.56;;;11.93;48.23
79144;BME280;68551;47.484;19.092;2023-04-09T14:00:49;101082.53;;;11.92;47.36
79144;BME280;68551;47.484;19.092;2023-04-09T14:03:52;101076.22;;;11.85;46.71
79144;BME280;68551;47.484;19.092;2023-04-09T14:06:57;101073.88;;;11.95;47.78
79144;BME280;68551;47.484;19.092;2023-04-09T14:09:59;101066.53;;;11.95;47.00
79144;BME280;68551;47.484;19.092;2023-04-09T14:13:04;101082.25;;;12.06;47.06
79144;BME280;68551;47.484;19.092;2023-04-09T14:16:08;101081.22;;;11.94;46.93
79144;BME280;68551;47.484;19.092;2023-04-09T14:19:14;101070.41;;;11.55;47.64
79144;BME280;68551;47.484;19.092;2023-04-09T14:22:17;101070.22;;;11.43;48.08
79144;BME280;68551;47.484;19.092;2023-04-09T14:25:24;101077.16;;;11.46;48.24
79144;BME280;68551;47.484;19.092;2023-04-09T14:28:27;101070.19;;;11.63;48.38
79144;BME280;68551;47.484;19.092;2023-04-09T14:31:29;101063.00;;;11.75;47.86
79144;BME280;68551;47.484;19.092;2023-04-09T14:34:34;101066.16;;;11.85;47.33
79144;BME280;68551;47.484;19.092;2023-04-09T14:37:39;101051.44;;;11.86;47.83
79144;BME280;68551;47.484;19.092;2023-04-09T14:40:42;101061.06;;;11.95;46.99
79144;BME280;68551;47.484;19.092;2023-04-09T14:43:45;101049.75;;;11.92;48.34
79144;BME280;68551;47.484;19.092;2023-04-09T14:46:47;101050.13;;;11.95;46.75
79144;BME280;68551;47.484;19.092;2023-04-09T14:49:53;101063.78;;;11.95;46.34
79144;BME280;68551;47.484;19.092;2023-04-09T14:52:57;101062.75;;;11.96;46.60
79144;BME280;68551;47.484;19.092;2023-04-09T14:55:59;101060.63;;;11.98;46.81
79144;BME280;68551;47.484;19.092;2023-04-09T14:59:02;101064.41;;;11.97;46.18
79144;BME280;68551;47.484;19.092;2023-04-09T15:02:05;101052.28;;;11.80;46.17
79144;BME280;68551;47.484;19.092;2023-04-09T15:05:08;101065.94;;;11.80;47.30
79144;BME280;68551;47.484;19.092;2023-04-09T15:08:11;101057.31;;;11.90;46.92
79144;BME280;68551;47.484;19.092;2023-04-09T15:11:18;101052.69;;;11.90;47.11
79144;BME280;68551;47.484;19.092;2023-04-09T15:14:21;101058.78;;;11.92;46.97
79144;BME280;68551;47.484;19.092;2023-04-09T15:17:25;101049.97;;;11.90;46.39
79144;BME280;68551;47.484;19.092;2023-04-09T15:20:38;101061.56;;;11.66;47.22
79144;BME280;68551;47.484;19.092;2023-04-09T15:23:44;101052.75;;;11.64;47.46
79144;BME280;68551;47.484;19.092;2023-04-09T15:26:49;101044.38;;;11.52;46.90
79144;BME280;68551;47.484;19.092;2023-04-09T15:29:54;101043.13;;;11.55;46.92
79144;BME280;68551;47.484;19.092;2023-04-09T15:32:59;101046.25;;;11.58;48.06
79144;BME280;68551;47.484;19.092;2023-04-09T15:36:06;101049.00;;;11.52;48.47
79144;BME280;68551;47.484;19.092;2023-04-09T15:39:08;101043.13;;;11.55;48.89
79144;BME280;68551;47.484;19.092;2023-04-09T15:42:11;101049.47;;;11.35;49.55
79144;BME280;68551;47.484;19.092;2023-04-09T15:45:16;101060.81;;;11.32;49.45
79144;BME280;68551;47.484;19.092;2023-04-09T15:48:18;101057.88;;;11.27;49.78
79144;BME280;68551;47.484;19.092;2023-04-09T15:51:21;101059.94;;;11.38;50.28
79144;BME280;68551;47.484;19.092;2023-04-09T15:54:26;101056.81;;;11.28;50.69
79144;BME280;68551;47.484;19.092;2023-04-09T15:57:28;101052.41;;;11.27;50.05
79144;BME280;68551;47.484;19.092;2023-04-09T16:00:31;101049.50;;;11.22;50.23
79144;BME280;68551;47.484;19.092;2023-04-09T16:03:33;101061.25;;;11.16;51.17
79144;BME280;68551;47.484;19.092;2023-04-09T16:06:40;101052.66;;;11.06;51.73
79144;BME280;68551;47.484;19.092;2023-04-09T16:09:48;101044.28;;;11.08;50.82
79144;BME280;68551;47.484;19.092;2023-04-09T16:12:50;101054.94;;;11.09;51.28
79144;BME280;68551;47.484;19.092;2023-04-09T16:15:58;101060.41;;;10.96;51.42
79144;BME280;68551;47.484;19.092;2023-04-09T16:19:00;101057.47;;;11.11;50.87
79144;BME280;68551;47.484;19.092;2023-04-09T16:22:03;101061.03;;;10.98;51.14